M I D A S
Marine Information and Data Acquisition System
Tripno 1978 of the Zeeleeuw from 2010-10-21 07:17:02 to 2010-10-21 15:28:27
Back to CruiseResearch ActivitiesStationsMapUnderway DataData graphs

EquipmentUnitsComments
TimeDGPSUTC
LatitudeDGPSDM.mWGS84
LongitudeDGPSDM.mWGS84
SpeedMeteo Stationm/sRelative wind speed
DirectionMeteo StationdegRelative wind direction
TemperatureMeteo Stationdeg CelciusAir temperature
PressureMeteo StationPaAtmospheric pressure
HumidityMeteo Station%Relative humidity
Missing or incorrect values are displayed as -999
Metereological data collected by the RV Zeeleeuw from 2010-10-21 06:05:45 to 2010-10-21 15:34:58
Time Latitude Longitude Speed Direction Temperature Pressure Humidity
2010-10-21 06:06 51°13.663 2°55.962 0.3 23 4.5 102330 41
2010-10-21 06:07 51°13.663 2°55.961 1.3 28 4.6 102320 42
2010-10-21 06:08 51°13.663 2°55.96 0.3 358 4.6 102330 41
2010-10-21 06:09 51°13.663 2°55.96 0.1 340 4.6 102330 41
2010-10-21 06:10 51°13.663 2°55.96 -999 355 4.6 102330 41
2010-10-21 06:11 51°13.662 2°55.96 0.1 359 4.6 102330 41
2010-10-21 06:12 51°13.663 2°55.96 2.1 4 4.6 102320 42
2010-10-21 06:13 51°13.662 2°55.96 0.2 1 4.5 102320 41
2010-10-21 06:14 51°13.662 2°55.961 0.2 338 4.3 102320 41
2010-10-21 06:15 51°13.662 2°55.96 0.4 344 4.3 102320 41
2010-10-21 06:16 51°13.662 2°55.96 0.1 352 4.3 102330 42
2010-10-21 06:17 51°13.662 2°55.96 1.4 12 4.4 102320 41
2010-10-21 06:18 51°13.662 2°55.96 2.1 8 4.4 102330 41
2010-10-21 06:19 51°13.662 2°55.96 0.1 353 4.3 102330 41
2010-10-21 06:20 51°13.662 2°55.96 0.1 4 4.3 102330 40
2010-10-21 06:21 51°13.662 2°55.96 0.1 340 4.3 -999 26
2010-10-21 06:22 51°13.662 2°55.96 1 11 4.3 102330 42
2010-10-21 06:23 51°13.662 2°55.96 1.7 6 4.4 102330 41
2010-10-21 06:24 51°13.662 2°55.96 2.1 359 4.4 102330 40
2010-10-21 06:25 51°13.662 2°55.96 1.5 26 4.3 102330 41
2010-10-21 06:26 51°13.662 2°55.96 2.5 350 4.2 102330 40
2010-10-21 06:27 51°13.662 2°55.96 3.5 350 4.2 102330 41
2010-10-21 06:28 51°13.662 2°55.96 1.9 14 4 102340 41
2010-10-21 06:29 51°13.662 2°55.96 1.5 347 3.9 102330 40
2010-10-21 06:30 51°13.662 2°55.96 -999 4 3.8 102340 40
2010-10-21 06:31 51°13.662 2°55.96 0.1 358 3.8 102340 41
2010-10-21 06:32 51°13.662 2°55.96 0.1 1 3.8 102340 41
2010-10-21 06:33 51°13.663 2°55.96 1.9 24 3.7 102340 41
2010-10-21 06:34 51°13.662 2°55.962 0.9 34 3.8 102340 41
2010-10-21 06:35 51°13.662 2°55.962 2.8 6 3.7 102340 40
2010-10-21 06:36 51°13.664 2°55.96 2.7 11 3.7 102340 40
2010-10-21 06:37 51°13.662 2°55.961 0.2 10 3.7 102340 40
2010-10-21 06:38 51°13.663 2°55.961 3.1 10 3.7 102340 40
2010-10-21 06:39 51°13.662 2°55.962 2.3 358 3.6 102340 40
2010-10-21 06:40 51°13.662 2°55.961 3.3 12 3.6 102340 39
2010-10-21 06:41 51°13.662 2°55.961 2.6 360 3.6 102340 41
2010-10-21 06:42 51°13.662 2°55.961 1.9 360 3.7 102350 40
2010-10-21 06:43 51°13.662 2°55.96 2.3 12 3.6 102340 40
2010-10-21 06:44 51°13.662 2°55.961 3 14 3.7 102350 42
2010-10-21 06:45 51°13.662 2°55.96 2.3 10 3.6 102350 41
2010-10-21 06:46 51°13.662 2°55.96 0.2 358 3.5 102350 40
2010-10-21 06:47 51°13.663 2°55.96 1 15 3.5 102350 40
2010-10-21 06:48 51°13.661 2°55.96 -999 3 3.5 102350 40
2010-10-21 06:49 51°13.662 2°55.96 1.6 13 3.4 102350 41
2010-10-21 06:50 51°13.662 2°55.96 1.3 22 3.3 102350 41
2010-10-21 06:51 51°13.663 2°55.96 1.9 17 3.3 102350 40
2010-10-21 06:52 51°13.663 2°55.96 0.3 7 3.3 102350 40
2010-10-21 06:53 51°13.663 2°55.96 2.2 14 3.3 102350 40
2010-10-21 06:54 51°13.663 2°55.96 3.2 20 3.3 102350 40
2010-10-21 06:55 51°13.662 2°55.96 2 14 3.2 102350 40
2010-10-21 06:56 51°13.66 2°55.961 3.2 1 3.2 102350 40
2010-10-21 06:57 51°13.66 2°55.959 2.1 20 3.2 102360 40
2010-10-21 06:58 51°13.662 2°55.96 -999 6 3.2 102350 40
2010-10-21 06:59 51°13.662 2°55.96 1 4 3.2 102350 40
2010-10-21 07:00 51°13.662 2°55.96 3.6 13 3.2 102350 41
2010-10-21 07:01 51°13.661 2°55.961 3.2 13 3.1 102360 41
2010-10-21 07:02 51°13.661 2°55.961 1.4 8 3.1 102360 39
2010-10-21 07:03 51°13.661 2°55.96 1.9 8 3.1 102360 39
2010-10-21 07:04 51°13.661 2°55.96 2.3 8 3.2 102360 40
2010-10-21 07:05 51°13.662 2°55.96 2.5 15 3.2 102360 41
2010-10-21 07:06 51°13.662 2°55.96 1.5 6 3.2 102360 41
2010-10-21 07:07 51°13.662 2°55.96 2.3 13 3.2 102360 41
2010-10-21 07:08 51°13.662 2°55.96 1.8 11 3.2 102360 40
2010-10-21 07:09 51°13.662 2°55.961 2.4 17 3.3 102360 40
2010-10-21 07:10 51°13.662 2°55.961 2.9 11 3.3 102360 41
2010-10-21 07:11 51°13.662 2°55.961 2 9 3.3 102360 41
2010-10-21 07:12 51°13.662 2°55.961 2.6 9 3.3 102360 41
2010-10-21 07:13 51°13.663 2°55.959 0.1 10 3.3 102360 40
2010-10-21 07:14 51°13.662 2°55.959 0.7 349 3.4 102360 39
2010-10-21 07:15 51°13.663 2°55.96 0.1 25 3.4 102360 40
2010-10-21 07:16 51°13.663 2°55.96 1.7 14 3.4 102360 40
2010-10-21 07:17 51°13.663 2°55.96 3.2 17 3.5 102360 40
2010-10-21 07:18 51°13.666 2°55.949 1.7 39 3.5 102360 41
2010-10-21 07:19 51°13.688 2°55.841 3.4 24 3.5 102350 40
2010-10-21 07:20 51°13.695 2°55.746 3.1 19 3.6 102360 41
2010-10-21 07:21 51°13.704 2°55.748 2.4 22 3.6 102360 40
2010-10-21 07:22 51°13.707 2°55.737 0.1 263 3.8 102360 40
2010-10-21 07:23 51°13.792 2°55.664 2.3 317 3.8 102360 40
2010-10-21 07:24 51°13.935 2°55.556 3.7 245 3.8 102360 40
2010-10-21 07:25 51°14.101 2°55.433 3.4 321 3.9 102360 41
2010-10-21 07:26 51°14.273 2°55.28 3.9 25 4 102350 41
2010-10-21 07:27 51°14.443 2°55.111 8.2 25 4.3 102350 42
2010-10-21 07:28 51°14.614 2°54.927 6.7 20 4.8 102330 40
2010-10-21 07:29 51°14.78 2°54.731 11.5 22 5.5 102320 44
2010-10-21 07:30 51°14.938 2°54.517 14.6 22 6.6 102290 41
2010-10-21 07:31 51°15.004 2°54.209 15.1 325 7.5 102300 41
2010-10-21 07:32 51°15.022 2°53.862 13.1 327 7.8 102310 37
2010-10-21 07:33 51°15.058 2°53.519 14.1 321 8.3 102320 38
2010-10-21 07:34 51°15.096 2°53.178 14 321 8.5 102290 36
2010-10-21 07:35 51°15.138 2°52.837 11.8 325 8.7 102320 37
2010-10-21 07:36 51°15.177 2°52.492 14.8 328 8.9 102310 36
2010-10-21 07:37 51°15.218 2°52.146 15.1 329 9 102320 35
2010-10-21 07:38 51°15.257 2°51.798 12.6 328 9 102320 35
2010-10-21 07:39 51°15.256 2°51.438 13.7 336 9.1 102320 37
2010-10-21 07:40 51°15.235 2°51.076 14 329 9.1 102320 34
2010-10-21 07:41 51°15.217 2°50.718 13.7 334 9.2 102330 36
2010-10-21 07:42 51°15.201 2°50.362 11.9 332 9.2 102340 36
2010-10-21 07:43 51°15.186 2°50.004 13.5 330 9.2 102330 36
2010-10-21 07:44 51°15.165 2°49.651 12.8 328 9.3 102320 36
2010-10-21 07:45 51°15.131 2°49.298 12.6 332 9.3 102320 36
2010-10-21 07:46 51°15.097 2°48.948 13.6 336 9.3 102320 36
2010-10-21 07:47 51°15.063 2°48.598 13.7 334 9.3 102320 36
2010-10-21 07:48 51°15.035 2°48.246 14.6 335 9.3 102320 37
2010-10-21 07:49 51°15.007 2°47.895 13.9 337 9.2 102320 37
2010-10-21 07:50 51°14.976 2°47.548 13.8 338 9.2 102320 37
2010-10-21 07:51 51°14.945 2°47.203 13.7 337 9.2 102300 39
2010-10-21 07:52 51°14.908 2°46.861 13.6 337 9.2 102330 35
2010-10-21 07:53 51°14.863 2°46.522 11.7 337 9.2 102330 35
2010-10-21 07:54 51°14.816 2°46.18 12.2 330 9.2 102350 37
2010-10-21 07:55 51°14.77 2°45.836 13.6 333 9.2 102340 37
2010-10-21 07:56 51°14.73 2°45.489 13.6 333 9.3 102340 37
2010-10-21 07:57 51°14.696 2°45.137 13.8 331 9.3 102350 36
2010-10-21 07:58 51°14.667 2°44.784 13.6 332 9.3 102330 37
2010-10-21 07:59 51°14.63 2°44.433 12.9 326 9.2 102340 36
2010-10-21 08:00 51°14.596 2°44.082 12.1 336 9.3 102340 38
2010-10-21 08:01 51°14.556 2°43.73 13.9 332 9.4 102330 39
2010-10-21 08:02 51°14.502 2°43.384 12.1 337 9.4 102340 37
2010-10-21 08:03 51°14.431 2°43.044 15.2 335 9.3 102340 37
2010-10-21 08:04 51°14.341 2°42.714 14.8 334 9.3 102350 38
2010-10-21 08:05 51°14.253 2°42.384 13.3 337 9.3 102330 37
2010-10-21 08:06 51°14.167 2°42.054 14 337 9.3 102330 37
2010-10-21 08:07 51°14.078 2°41.73 14.1 336 9.3 102340 37
2010-10-21 08:08 51°13.996 2°41.404 12.7 341 9.3 102340 39
2010-10-21 08:09 51°13.908 2°41.083 14.4 334 9.3 102330 38
2010-10-21 08:10 51°13.827 2°40.755 12.3 336 9.4 102350 38
2010-10-21 08:11 51°13.735 2°40.437 13.9 343 9.3 102340 35
2010-10-21 08:12 51°13.627 2°40.129 13.7 339 9.3 102340 38
2010-10-21 08:13 51°13.509 2°39.83 12.8 341 9.3 102330 37
2010-10-21 08:14 51°13.375 2°39.548 13 347 9.3 102330 37
2010-10-21 08:15 51°13.23 2°39.282 12.4 348 9.3 102350 37
2010-10-21 08:16 51°13.088 2°39.005 14.3 343 9.3 102330 38
2010-10-21 08:17 51°12.949 2°38.732 12 344 9.2 102340 36
2010-10-21 08:18 51°12.808 2°38.462 14.8 342 9.2 102340 37
2010-10-21 08:19 51°12.665 2°38.194 11.5 344 9.2 102340 36
2010-10-21 08:20 51°12.525 2°37.925 11 341 9.2 102340 37
2010-10-21 08:21 51°12.368 2°37.677 12 348 9.3 102330 37
2010-10-21 08:22 51°12.189 2°37.467 12.8 345 9.3 102330 37
2010-10-21 08:23 51°12.012 2°37.255 14 348 9.2 102340 36
2010-10-21 08:24 51°11.832 2°37.049 11.7 345 9.2 102360 38
2010-10-21 08:25 51°11.651 2°36.837 12.2 347 9.3 102340 39
2010-10-21 08:26 51°11.477 2°36.617 11.8 341 9.3 102340 35
2010-10-21 08:27 51°11.301 2°36.407 13.8 345 9.4 102340 38
2010-10-21 08:28 51°11.115 2°36.219 10.3 346 9.3 102350 36
2010-10-21 08:29 51°10.93 2°36.031 12.8 343 9.3 102340 37
2010-10-21 08:30 51°10.748 2°35.84 11.8 345 9.3 102360 36
2010-10-21 08:31 51°10.565 2°35.648 12.4 345 9.3 102350 37
2010-10-21 08:32 51°10.38 2°35.459 12.6 340 9.3 102360 37
2010-10-21 08:33 51°10.198 2°35.268 12.4 340 9.3 102350 40
2010-10-21 08:34 51°10.014 2°35.078 10.4 341 9 102370 41
2010-10-21 08:35 51°9.831 2°34.89 12.5 334 9 102370 43
2010-10-21 08:36 51°9.651 2°34.698 12.8 339 9 102370 43
2010-10-21 08:37 51°9.503 2°34.822 5.7 15 8.9 102350 41
2010-10-21 08:38 51°9.482 2°35.153 7.4 10 8.9 102380 42
2010-10-21 08:39 51°9.415 2°35.475 8 7 8.8 102370 43
2010-10-21 08:40 51°9.421 2°35.797 5.2 16 8.7 102380 43
2010-10-21 08:41 51°9.477 2°36.115 6.2 8 8.5 102370 42
2010-10-21 08:42 51°9.52 2°36.438 5.8 9 8.2 102370 42
2010-10-21 08:43 51°9.562 2°36.765 5.9 9 8 102390 43
2010-10-21 08:44 51°9.568 2°37.102 6.3 9 8 102370 42
2010-10-21 08:45 51°9.566 2°37.411 6.1 20 7.9 102370 43
2010-10-21 08:46 51°9.52 2°37.557 9 354 7.8 102370 42
2010-10-21 08:47 51°9.454 2°37.511 8.1 19 7.7 102380 42
2010-10-21 08:48 51°9.449 2°37.473 7.2 253 7.8 102390 42
2010-10-21 08:49 51°9.448 2°37.482 6.2 267 7.9 102400 44
2010-10-21 08:50 51°9.445 2°37.492 7 269 8 102400 41
2010-10-21 08:51 51°9.442 2°37.505 6.8 270 8.1 102400 43
2010-10-21 08:52 51°9.439 2°37.519 6.6 22 8 102400 42
2010-10-21 08:53 51°9.437 2°37.533 6.6 23 8 102410 40
2010-10-21 08:54 51°9.436 2°37.547 7.9 21 8 102400 41
2010-10-21 08:55 51°9.435 2°37.561 7.1 20 8.1 102400 42
2010-10-21 08:56 51°9.433 2°37.577 6.4 26 8.1 102390 43
2010-10-21 08:57 51°9.428 2°37.594 7 24 8 102400 42
2010-10-21 08:58 51°9.424 2°37.61 6.3 26 7.9 102390 42
2010-10-21 08:59 51°9.423 2°37.626 4.4 20 7.9 102400 42
2010-10-21 09:00 51°9.425 2°37.643 6.3 25 8 102400 42
2010-10-21 09:01 51°9.429 2°37.661 5.4 23 8 102400 41
2010-10-21 09:02 51°9.434 2°37.68 6.2 22 7.9 102390 43
2010-10-21 09:03 51°9.437 2°37.699 6.8 27 7.9 102400 42
2010-10-21 09:04 51°9.442 2°37.717 6.6 22 7.9 102400 42
2010-10-21 09:05 51°9.449 2°37.737 7.9 20 7.9 102400 41
2010-10-21 09:06 51°9.451 2°37.759 6.9 22 7.9 102410 41
2010-10-21 09:07 51°9.453 2°37.782 6.7 22 8 102410 41
2010-10-21 09:08 51°9.456 2°37.803 6.1 22 8 102410 41
2010-10-21 09:09 51°9.46 2°37.827 6.7 26 8 102400 40
2010-10-21 09:10 51°9.491 2°37.834 5.8 262 8 102390 41
2010-10-21 09:11 51°9.631 2°37.799 5.6 26 8.2 102390 41
2010-10-21 09:12 51°9.834 2°37.748 8 27 8.3 102390 41
2010-10-21 09:13 51°9.986 2°37.568 7.3 20 8.4 102390 42
2010-10-21 09:14 51°10.031 2°37.47 7.8 23 8.6 102380 42
2010-10-21 09:15 51°10.037 2°37.464 7.4 21 8.7 102370 41
2010-10-21 09:16 51°10.045 2°37.48 7.1 22 8.7 102370 41
2010-10-21 09:17 51°10.056 2°37.503 7.5 21 8.8 102370 41
2010-10-21 09:18 51°10.081 2°37.432 9.5 24 8.8 102390 41
2010-10-21 09:19 51°10.143 2°37.19 10.6 21 8.8 102350 40
2010-10-21 09:20 51°10.217 2°36.918 10.5 26 8.9 102350 42
2010-10-21 09:21 51°10.287 2°36.644 10.5 26 8.9 102330 41
2010-10-21 09:22 51°10.356 2°36.368 11.4 25 9 102350 40
2010-10-21 09:23 51°10.382 2°36.225 10.2 25 9.1 102360 40
2010-10-21 09:24 51°10.403 2°36.221 5.6 266 9.1 102390 39
2010-10-21 09:25 51°10.411 2°36.256 8 340 9.3 102400 41
2010-10-21 09:26 51°10.414 2°36.295 7.7 25 9.3 102400 40
2010-10-21 09:27 51°10.416 2°36.335 6.9 26 9.3 102400 40
2010-10-21 09:28 51°10.417 2°36.374 8.2 270 9.3 102390 40
2010-10-21 09:29 51°10.418 2°36.414 5.9 21 9.2 102390 39
2010-10-21 09:30 51°10.419 2°36.455 6.3 25 9.3 102400 41
2010-10-21 09:31 51°10.42 2°36.496 7.4 269 9.2 102400 39
2010-10-21 09:32 51°10.422 2°36.539 5.8 26 9.1 102390 39
2010-10-21 09:33 51°10.423 2°36.581 5.8 270 9.2 102390 39
2010-10-21 09:34 51°10.423 2°36.622 6.6 25 9.3 102390 40
2010-10-21 09:35 51°10.426 2°36.666 6.6 262 9.3 102400 39
2010-10-21 09:36 51°10.459 2°36.659 10.1 22 9.4 102370 40
2010-10-21 09:37 51°10.443 2°36.614 9.7 345 9.4 102370 38
2010-10-21 09:38 51°10.29 2°36.638 9 2 9.4 102340 35
2010-10-21 09:39 51°10.099 2°36.801 7.6 359 9.5 102360 37
2010-10-21 09:40 51°9.928 2°37.005 9.6 356 9.5 102350 39
2010-10-21 09:41 51°9.78 2°37.193 9.3 357 9.3 102350 39
2010-10-21 09:42 51°9.706 2°37.249 7 351 9.2 102360 39
2010-10-21 09:43 51°9.66 2°37.255 8 337 9.2 102370 41
2010-10-21 09:44 51°9.62 2°37.225 7.9 333 9.2 102380 39
2010-10-21 09:45 51°9.593 2°37.174 7.3 324 9.3 102360 40
2010-10-21 09:46 51°9.57 2°37.11 7.9 326 9.3 102370 40
2010-10-21 09:47 51°9.539 2°37.054 8.1 329 9.3 102360 39
2010-10-21 09:48 51°9.501 2°37.008 7.3 327 9.2 102350 39
2010-10-21 09:49 51°9.472 2°36.953 8.1 325 9.2 102380 39
2010-10-21 09:50 51°9.446 2°36.888 7.6 325 9.2 102380 39
2010-10-21 09:51 51°9.432 2°36.814 7.3 322 9.3 102370 39
2010-10-21 09:52 51°9.422 2°36.737 8.1 319 9.3 102370 39
2010-10-21 09:53 51°9.412 2°36.66 8.4 321 9.3 102360 40
2010-10-21 09:54 51°9.4 2°36.587 7.4 321 9.4 102370 39
2010-10-21 09:55 51°9.389 2°36.513 9.7 323 9.4 102370 39
2010-10-21 09:56 51°9.379 2°36.438 7.4 327 9.5 102350 38
2010-10-21 09:57 51°9.367 2°36.374 8.5 319 9.6 102370 39
2010-10-21 09:58 51°9.356 2°36.303 9.3 329 9.6 102360 38
2010-10-21 09:59 51°9.327 2°36.258 10.4 338 9.7 102360 37
2010-10-21 10:00 51°9.285 2°36.221 8.5 334 9.6 102360 37
2010-10-21 10:01 51°9.242 2°36.188 8.8 338 9.6 102370 37
2010-10-21 10:02 51°9.198 2°36.158 8.4 343 9.6 102370 35
2010-10-21 10:03 51°9.153 2°36.129 8.8 339 9.6 102370 37
2010-10-21 10:04 51°9.109 2°36.103 8.1 334 9.6 102370 37
2010-10-21 10:05 51°9.068 2°36.068 9.2 336 9.6 102350 36
2010-10-21 10:06 51°9.033 2°36.019 8.7 332 9.6 102380 37
2010-10-21 10:07 51°9.01 2°35.955 8.6 328 9.8 102370 39
2010-10-21 10:08 51°9.001 2°35.893 7.5 325 9.8 102360 39
2010-10-21 10:09 51°9.009 2°35.844 8.8 22 9.8 102360 38
2010-10-21 10:10 51°9.041 2°35.813 8.5 247 9.9 102370 39
2010-10-21 10:11 51°9.102 2°35.826 8.9 256 10 102370 39
2010-10-21 10:12 51°9.157 2°35.873 6.4 263 10.1 102390 40
2010-10-21 10:13 51°9.217 2°35.922 6.1 262 10.1 102370 38
2010-10-21 10:14 51°9.319 2°35.974 7.1 262 10.1 102380 38
2010-10-21 10:15 51°9.399 2°36.024 6.7 259 10 102380 36
2010-10-21 10:16 51°9.442 2°36.068 6.3 261 10.1 102370 37
2010-10-21 10:17 51°9.474 2°36.113 10.9 258 10.2 102390 38
2010-10-21 10:18 51°9.496 2°36.166 9.6 258 10.3 102380 36
2010-10-21 10:19 51°9.526 2°36.221 8.9 250 10.3 102380 37
2010-10-21 10:20 51°9.614 2°36.225 10.3 18 10.3 102360 35
2010-10-21 10:21 51°9.722 2°36.122 10.7 20 10.2 102320 37
2010-10-21 10:22 51°9.835 2°35.988 12.3 23 10.2 102370 36
2010-10-21 10:23 51°10.001 2°35.942 9.8 249 10.2 102340 36
2010-10-21 10:24 51°10.195 2°35.971 10.2 24 10.2 102370 36
2010-10-21 10:25 51°10.39 2°36.06 8.1 253 10.3 102370 36
2010-10-21 10:26 51°10.584 2°36.172 7.1 262 10.3 102380 35
2010-10-21 10:27 51°10.772 2°36.279 7.8 257 10.3 102380 36
2010-10-21 10:28 51°10.955 2°36.388 7.3 249 10.3 102370 36
2010-10-21 10:29 51°11.104 2°36.476 6.6 258 10.3 102370 35
2010-10-21 10:30 51°11.184 2°36.528 5.1 264 10.4 102380 37
2010-10-21 10:31 51°11.251 2°36.579 6.8 264 10.4 102380 37
2010-10-21 10:32 51°11.412 2°36.713 6.1 260 10.3 102370 36
2010-10-21 10:33 51°11.617 2°36.881 8.7 251 10.3 102370 36
2010-10-21 10:34 51°11.836 2°36.983 8.6 19 10.4 102370 35
2010-10-21 10:35 51°12.049 2°37.064 8.6 25 10.4 102370 36
2010-10-21 10:36 51°12.261 2°37.184 7.1 246 10.4 102370 35
2010-10-21 10:37 51°12.47 2°37.32 8.3 27 10.4 102360 36
2010-10-21 10:38 51°12.683 2°37.449 8 22 10.4 102370 35
2010-10-21 10:39 51°12.899 2°37.55 9.9 249 10.5 102370 36
2010-10-21 10:40 51°13.112 2°37.609 9.2 22 10.5 102370 36
2010-10-21 10:41 51°13.332 2°37.631 9.2 20 10.5 102370 36
2010-10-21 10:42 51°13.545 2°37.596 9.9 26 10.4 102360 34
2010-10-21 10:43 51°13.748 2°37.512 10.9 22 10.4 102320 35
2010-10-21 10:44 51°13.94 2°37.384 10.8 23 10.4 102330 35
2010-10-21 10:45 51°14.131 2°37.257 11.6 23 10.4 102320 35
2010-10-21 10:46 51°14.324 2°37.132 10.2 26 10.3 102320 34
2010-10-21 10:47 51°14.515 2°37.005 10.9 26 10.3 102310 33
2010-10-21 10:48 51°14.71 2°36.893 10.8 23 10.2 102330 34
2010-10-21 10:49 51°14.911 2°36.795 12.7 21 10.3 102330 35
2010-10-21 10:50 51°15.111 2°36.695 12 19 10.3 102330 35
2010-10-21 10:51 51°15.313 2°36.594 11.7 26 10.4 102300 35
2010-10-21 10:52 51°15.516 2°36.485 11.5 23 10.4 102300 37
2010-10-21 10:53 51°15.719 2°36.38 11.8 25 10.5 102320 36
2010-10-21 10:54 51°15.924 2°36.269 12.1 20 10.5 102300 36
2010-10-21 10:55 51°16.135 2°36.169 13.8 24 10.5 102300 36
2010-10-21 10:56 51°16.343 2°36.064 11.2 25 10.5 102300 36
2010-10-21 10:57 51°16.549 2°35.954 10.7 26 10.5 102300 35
2010-10-21 10:58 51°16.75 2°35.844 12.4 22 10.6 102290 36
2010-10-21 10:59 51°16.953 2°35.734 12.1 20 10.6 102280 36
2010-10-21 11:00 51°17.15 2°35.614 13.2 23 10.6 102300 36
2010-10-21 11:01 51°17.349 2°35.507 10.6 21 10.6 102320 37
2010-10-21 11:02 51°17.543 2°35.403 11 24 10.6 102280 36
2010-10-21 11:03 51°17.741 2°35.303 11.3 22 10.6 102320 36
2010-10-21 11:04 51°17.945 2°35.202 12.6 25 10.6 102330 38
2010-10-21 11:05 51°18.141 2°35.092 11.3 28 10.6 102280 37
2010-10-21 11:06 51°18.346 2°34.99 13.8 25 10.6 102270 35
2010-10-21 11:07 51°18.548 2°34.888 12.6 18 10.6 102240 36
2010-10-21 11:08 51°18.746 2°34.778 11.5 23 10.6 102270 37
2010-10-21 11:09 51°18.948 2°34.663 13.5 24 10.7 102270 38
2010-10-21 11:10 51°19.146 2°34.546 11.6 21 10.7 102260 37
2010-10-21 11:11 51°19.345 2°34.443 12.3 27 10.7 102260 36
2010-10-21 11:12 51°19.548 2°34.34 11.4 25 10.7 102260 36
2010-10-21 11:13 51°19.751 2°34.233 12.6 24 10.7 102290 38
2010-10-21 11:14 51°19.961 2°34.122 10.2 26 10.6 102270 36
2010-10-21 11:15 51°20.17 2°34.009 12.2 24 10.7 102260 37
2010-10-21 11:16 51°20.376 2°33.894 11.8 24 10.7 102270 38
2010-10-21 11:17 51°20.586 2°33.78 13.3 22 10.8 102270 39
2010-10-21 11:18 51°20.795 2°33.679 11.9 22 10.7 102260 36
2010-10-21 11:19 51°21.002 2°33.573 12.5 23 10.7 102250 37
2010-10-21 11:20 51°21.204 2°33.459 11.6 25 10.7 102260 36
2010-10-21 11:21 51°21.407 2°33.343 13 25 10.6 102240 37
2010-10-21 11:22 51°21.605 2°33.224 11.6 22 10.7 102240 37
2010-10-21 11:23 51°21.805 2°33.112 11.8 22 10.7 102240 38
2010-10-21 11:24 51°22.004 2°32.999 14.1 20 10.7 102260 38
2010-10-21 11:25 51°22.203 2°32.889 13.2 27 10.7 102260 37
2010-10-21 11:26 51°22.404 2°32.776 14.8 25 10.7 102260 39
2010-10-21 11:27 51°22.601 2°32.661 13.8 24 10.7 102250 38
2010-10-21 11:28 51°22.802 2°32.547 14.3 243 10.8 102270 39
2010-10-21 11:29 51°23.013 2°32.443 9.7 22 10.8 102250 40
2010-10-21 11:30 51°23.214 2°32.344 10.6 21 10.8 102250 37
2010-10-21 11:31 51°23.421 2°32.245 13.3 25 10.8 102240 39
2010-10-21 11:32 51°23.619 2°32.128 13.2 25 10.8 102210 37
2010-10-21 11:33 51°23.823 2°32.018 10.6 24 10.8 102220 38
2010-10-21 11:34 51°24.022 2°31.903 13.3 28 10.8 102250 38
2010-10-21 11:35 51°24.212 2°31.758 11.5 26 10.8 102240 38
2010-10-21 11:36 51°24.398 2°31.598 12.8 25 10.8 102220 38
2010-10-21 11:37 51°24.586 2°31.442 13.4 24 10.8 102220 38
2010-10-21 11:38 51°24.774 2°31.282 13.6 24 10.7 102190 37
2010-10-21 11:39 51°24.963 2°31.124 14.9 27 10.8 102180 38
2010-10-21 11:40 51°25.151 2°30.966 12.2 20 10.7 102180 37
2010-10-21 11:41 51°25.346 2°30.821 16 23 10.7 102200 37
2010-10-21 11:42 51°25.536 2°30.667 14.8 22 10.8 102170 39
2010-10-21 11:43 51°25.73 2°30.512 13.8 22 10.8 102190 40
2010-10-21 11:44 51°25.918 2°30.357 13.1 23 10.8 102180 38
2010-10-21 11:45 51°26.104 2°30.195 12.2 24 10.8 102190 40
2010-10-21 11:46 51°26.321 2°30.223 5.6 263 10.9 102240 39
2010-10-21 11:47 51°26.508 2°30.438 6.5 28 10.8 102250 38
2010-10-21 11:48 51°26.607 2°30.79 5.8 21 10.9 102270 36
2010-10-21 11:49 51°26.686 2°31.16 5.7 19 10.7 102270 37
2010-10-21 11:50 51°26.764 2°31.535 3.4 23 10.7 102270 36
2010-10-21 11:51 51°26.837 2°31.91 5.5 43 11 102260 36
2010-10-21 11:52 51°26.899 2°32.285 4.8 24 11 102250 37
2010-10-21 11:53 51°26.957 2°32.669 3.7 26 10.8 102270 37
2010-10-21 11:54 51°27.024 2°33.05 3.8 22 10.8 102260 37
2010-10-21 11:55 51°27.096 2°33.44 2.6 23 11.1 102260 37
2010-10-21 11:56 51°27.155 2°33.832 3.8 23 11.1 102250 35
2010-10-21 11:57 51°27.219 2°34.221 3.2 21 10.9 102240 37
2010-10-21 11:58 51°27.27 2°34.609 5 24 11 102240 39
2010-10-21 11:59 51°27.329 2°34.984 4.8 25 10.9 102250 38
2010-10-21 12:00 51°27.383 2°35.366 4 19 10.7 102240 39
2010-10-21 12:01 51°27.435 2°35.745 3.6 22 10.8 102250 37
2010-10-21 12:02 51°27.491 2°36.12 3 29 10.9 102250 39
2010-10-21 12:03 51°27.556 2°36.49 3.5 22 10.9 102250 39
2010-10-21 12:04 51°27.618 2°36.853 3.3 21 11 102240 40
2010-10-21 12:05 51°27.673 2°37.224 6.5 43 10.9 102240 39
2010-10-21 12:06 51°27.725 2°37.6 5.6 25 10.8 102240 38
2010-10-21 12:07 51°27.797 2°37.969 6.5 41 10.7 102240 38
2010-10-21 12:08 51°27.838 2°38.352 5.8 34 10.8 102240 38
2010-10-21 12:09 51°27.854 2°38.734 5.1 39 10.7 102230 37
2010-10-21 12:10 51°27.849 2°39.112 5.3 40 10.7 102240 38
2010-10-21 12:11 51°27.824 2°39.485 7.2 28 10.7 102230 38
2010-10-21 12:12 51°27.791 2°39.857 6.6 32 10.8 102280 40
2010-10-21 12:13 51°27.759 2°40.231 7.1 19 10.8 102250 39
2010-10-21 12:14 51°27.724 2°40.599 8.3 26 10.8 102240 38
2010-10-21 12:15 51°27.688 2°40.972 7.7 25 10.8 102230 39
2010-10-21 12:16 51°27.656 2°41.348 4.7 29 10.8 102230 40
2010-10-21 12:17 51°27.617 2°41.719 9.5 29 10.8 102220 40
2010-10-21 12:18 51°27.578 2°42.092 6.2 32 10.7 102230 37
2010-10-21 12:19 51°27.545 2°42.468 7 27 10.8 102220 38
2010-10-21 12:20 51°27.509 2°42.838 8.1 24 10.8 102180 39
2010-10-21 12:21 51°27.478 2°43.208 8.5 35 10.8 102230 40
2010-10-21 12:22 51°27.536 2°43.58 4.6 29 10.8 102240 39
2010-10-21 12:23 51°27.65 2°43.927 4.9 21 11 102230 37
2010-10-21 12:24 51°27.778 2°44.262 2.1 26 11.2 102240 37
2010-10-21 12:25 51°27.92 2°44.586 2.8 26 11.3 102240 37
2010-10-21 12:26 51°28.053 2°44.915 6.8 27 11.4 102250 37
2010-10-21 12:27 51°28.175 2°45.244 5.8 26 11.2 102240 38
2010-10-21 12:28 51°28.305 2°45.566 7.8 28 11.1 102250 37
2010-10-21 12:29 51°28.425 2°45.9 5.4 27 10.9 102240 37
2010-10-21 12:30 51°28.534 2°46.241 2.6 23 11 102230 39
2010-10-21 12:31 51°28.65 2°46.574 4.5 29 11.2 102240 39
2010-10-21 12:32 51°28.793 2°46.874 6.1 23 11.4 102220 38
2010-10-21 12:33 51°28.937 2°47.181 5.5 24 11.3 102240 36
2010-10-21 12:34 51°29.059 2°47.51 5.2 22 11.1 102240 37
2010-10-21 12:35 51°29.186 2°47.838 6.4 28 11 102230 39
2010-10-21 12:36 51°29.308 2°48.17 5 30 11 102230 37
2010-10-21 12:37 51°29.443 2°48.495 6.8 29 11 102210 37
2010-10-21 12:38 51°29.57 2°48.822 3.9 22 10.9 102240 38
2010-10-21 12:39 51°29.702 2°49.141 3.8 22 11.2 102210 39
2010-10-21 12:40 51°29.853 2°49.441 3.3 20 11.4 102220 38
2010-10-21 12:41 51°29.985 2°49.769 3.6 25 11.6 102230 40
2010-10-21 12:42 51°30.112 2°50.091 2.3 26 12.1 102200 39
2010-10-21 12:43 51°30.248 2°50.407 4.6 21 11.9 102230 39
2010-10-21 12:44 51°30.377 2°50.726 4.8 19 11.7 102210 40
2010-10-21 12:45 51°30.499 2°51.058 5.3 20 11.5 102220 40
2010-10-21 12:46 51°30.61 2°51.391 2.6 20 11.7 102210 42
2010-10-21 12:47 51°30.72 2°51.723 3.2 22 11.7 102210 40
2010-10-21 12:48 51°30.829 2°52.059 6 26 11.7 102210 39
2010-10-21 12:49 51°30.945 2°52.391 4 28 11.8 102200 38
2010-10-21 12:50 51°31.074 2°52.713 3.6 20 11.8 102210 39
2010-10-21 12:51 51°31.193 2°53.047 5 44 11.8 102210 38
2010-10-21 12:52 51°31.314 2°53.38 4.2 22 12.1 102210 38
2010-10-21 12:53 51°31.426 2°53.72 2.8 22 12.1 102210 37
2010-10-21 12:54 51°31.527 2°54.07 5.8 27 12.3 102210 35
2010-10-21 12:55 51°31.613 2°54.432 6.7 21 11.9 102210 36
2010-10-21 12:56 51°31.693 2°54.793 5.8 21 11.7 102210 36
2010-10-21 12:57 51°31.774 2°55.146 5.9 24 11.4 102210 40
2010-10-21 12:58 51°31.87 2°55.491 4.9 21 11.4 102200 36
2010-10-21 12:59 51°31.935 2°55.85 6.7 20 11.4 102210 39
2010-10-21 13:00 51°31.993 2°56.213 7.3 42 11.2 102220 41
2010-10-21 13:01 51°32.044 2°56.58 6.8 37 11.1 102190 38
2010-10-21 13:02 51°32.076 2°56.947 7.9 38 11 102200 41
2010-10-21 13:03 51°32.116 2°57.313 5.8 28 11 102190 39
2010-10-21 13:04 51°32.281 2°57.572 6.8 260 11 102200 38
2010-10-21 13:05 51°32.503 2°57.61 11.2 252 11.1 102180 40
2010-10-21 13:06 51°32.725 2°57.549 10.6 19 11.2 102160 40
2010-10-21 13:07 51°32.941 2°57.579 6.8 267 11.2 102170 40
2010-10-21 13:08 51°33.121 2°57.826 5.3 263 11.2 102200 41
2010-10-21 13:09 51°33.292 2°58.081 6.6 21 11.2 102190 40
2010-10-21 13:10 51°33.438 2°58.377 4.2 23 11.1 102200 37
2010-10-21 13:11 51°33.576 2°58.683 0.3 21 11.1 102190 39
2010-10-21 13:12 51°33.701 2°59.004 6.2 23 11.2 102180 40
2010-10-21 13:13 51°33.812 2°59.33 4.7 22 11.2 102200 39
2010-10-21 13:14 51°33.919 2°59.666 2.4 20 11.4 102180 39
2010-10-21 13:15 51°34.02 3°0.006 4.1 23 11.7 102190 38
2010-10-21 13:16 51°34.111 3°0.346 3.8 26 11.7 102190 40
2010-10-21 13:17 51°34.193 3°0.69 3.3 26 12.2 102200 41
2010-10-21 13:18 51°34.278 3°1.036 1.7 21 12.2 102180 40
2010-10-21 13:19 51°34.382 3°1.371 6.3 22 12.2 102170 39
2010-10-21 13:20 51°34.362 3°1.689 10.8 18 12.1 102170 38
2010-10-21 13:21 51°34.196 3°1.717 16.8 351 11.7 102120 39
2010-10-21 13:22 51°34.026 3°1.659 15.9 348 11.3 102130 40
2010-10-21 13:23 51°33.857 3°1.604 16.6 347 10.5 102090 46
2010-10-21 13:24 51°33.685 3°1.552 15.1 351 10 102120 47
2010-10-21 13:25 51°33.517 3°1.495 15.3 347 10.1 102120 46
2010-10-21 13:26 51°33.352 3°1.429 14.6 354 10.1 102120 43
2010-10-21 13:27 51°33.187 3°1.368 17.4 347 10.2 102130 43
2010-10-21 13:28 51°33.02 3°1.303 16 347 10.4 102120 42
2010-10-21 13:29 51°32.848 3°1.238 15.3 347 10.4 102130 42
2010-10-21 13:30 51°32.676 3°1.169 15.3 349 10.5 102140 42
2010-10-21 13:31 51°32.502 3°1.087 14.3 346 10.6 102130 43
2010-10-21 13:32 51°32.329 3°1.009 18.6 347 10.5 102130 41
2010-10-21 13:33 51°32.16 3°0.95 15.9 342 10.6 102150 40
2010-10-21 13:34 51°32.002 3°0.837 14 344 10.6 102120 39
2010-10-21 13:35 51°31.841 3°0.721 14 348 10.6 102160 39
2010-10-21 13:36 51°31.674 3°0.621 15.3 342 10.7 102140 42
2010-10-21 13:37 51°31.52 3°0.481 16.2 343 10.7 102140 42
2010-10-21 13:38 51°31.367 3°0.327 15.5 345 10.7 102130 40
2010-10-21 13:39 51°31.208 3°0.187 14 346 10.7 102120 39
2010-10-21 13:40 51°31.052 3°0.055 15.1 342 10.8 102130 41
2010-10-21 13:41 51°30.899 2°59.917 13 342 10.8 102140 41
2010-10-21 13:42 51°30.741 2°59.782 15.6 341 10.8 102130 40
2010-10-21 13:43 51°30.584 2°59.633 11.5 341 10.8 102150 40
2010-10-21 13:44 51°30.425 2°59.498 14.8 344 10.8 102140 40
2010-10-21 13:45 51°30.267 2°59.355 16 344 10.9 102140 43
2010-10-21 13:46 51°30.11 2°59.22 14.7 344 11 102140 41
2010-10-21 13:47 51°29.952 2°59.076 15.6 347 11 102130 42
2010-10-21 13:48 51°29.785 2°58.96 15.7 341 10.9 102130 40
2010-10-21 13:49 51°29.62 2°58.838 14.3 338 10.9 102120 40
2010-10-21 13:50 51°29.456 2°58.711 14.3 340 11.1 102140 42
2010-10-21 13:51 51°29.293 2°58.583 15.5 340 11 102130 40
2010-10-21 13:52 51°29.133 2°58.456 13.9 342 11 102140 40
2010-10-21 13:53 51°28.971 2°58.34 15.4 345 11 102130 42
2010-10-21 13:54 51°28.808 2°58.214 13.8 344 11 102130 40
2010-10-21 13:55 51°28.644 2°58.095 17.8 343 11 102120 40
2010-10-21 13:56 51°28.48 2°57.968 13.5 343 10.9 102120 41
2010-10-21 13:57 51°28.314 2°57.835 13.5 340 10.9 102130 41
2010-10-21 13:58 51°28.149 2°57.702 14.3 342 11 102130 42
2010-10-21 13:59 51°27.984 2°57.58 13.6 342 11 102130 41
2010-10-21 14:00 51°27.815 2°57.452 15.5 340 11 102110 42
2010-10-21 14:01 51°27.647 2°57.323 15.1 343 10.9 102100 40
2010-10-21 14:02 51°27.48 2°57.192 13.1 337 11 102120 41
2010-10-21 14:03 51°27.313 2°57.057 17.2 339 11.1 102090 41
2010-10-21 14:04 51°27.15 2°56.927 12.2 343 11 102110 41
2010-10-21 14:05 51°26.979 2°56.806 15.5 343 10.9 102090 40
2010-10-21 14:06 51°26.815 2°56.67 14.5 345 11 102120 40
2010-10-21 14:07 51°26.646 2°56.536 13.9 338 11 102110 42
2010-10-21 14:08 51°26.48 2°56.403 14 342 11 102110 41
2010-10-21 14:09 51°26.317 2°56.259 14.3 341 11 102100 41
2010-10-21 14:10 51°26.152 2°56.125 13.3 344 11 102100 39
2010-10-21 14:11 51°25.988 2°55.984 14.8 340 11.1 102110 43
2010-10-21 14:12 51°25.822 2°55.858 15.3 342 11.1 102090 39
2010-10-21 14:13 51°25.656 2°55.731 13.3 344 11.1 102120 40
2010-10-21 14:14 51°25.489 2°55.6 15.4 344 11.1 102090 40
2010-10-21 14:15 51°25.323 2°55.465 15.5 344 11.2 102070 41
2010-10-21 14:16 51°25.158 2°55.334 14.6 342 11.1 102080 39
2010-10-21 14:17 51°24.993 2°55.192 14.9 345 11.2 102080 39
2010-10-21 14:18 51°24.827 2°55.054 16.3 344 11.1 102080 37
2010-10-21 14:19 51°24.66 2°54.922 16.3 345 11.1 102100 39
2010-10-21 14:20 51°24.494 2°54.794 14.7 344 11.1 102100 39
2010-10-21 14:21 51°24.326 2°54.657 13.3 342 11.2 102090 40
2010-10-21 14:22 51°24.157 2°54.521 14.9 347 11.1 102090 39
2010-10-21 14:23 51°23.985 2°54.393 14.2 344 11.2 102090 42
2010-10-21 14:24 51°23.816 2°54.256 14.7 344 11.2 102090 39
2010-10-21 14:25 51°23.645 2°54.121 14.1 348 11.2 102100 39
2010-10-21 14:26 51°23.473 2°53.993 13.3 341 11.2 102090 39
2010-10-21 14:27 51°23.301 2°53.868 14 345 11.2 102090 40
2010-10-21 14:28 51°23.13 2°53.736 14.2 339 11.2 102110 39
2010-10-21 14:29 51°22.961 2°53.595 13.8 345 11.2 102110 40
2010-10-21 14:30 51°22.788 2°53.463 14.4 342 11.2 102100 40
2010-10-21 14:31 51°22.614 2°53.327 13.6 337 11.2 102080 39
2010-10-21 14:32 51°22.435 2°53.211 15.4 346 11.2 102110 40
2010-10-21 14:33 51°22.247 2°53.142 13.6 343 11.3 102100 39
2010-10-21 14:34 51°22.056 2°53.073 13.9 341 11.2 102100 41
2010-10-21 14:35 51°21.865 2°52.998 13.9 337 11.2 102120 41
2010-10-21 14:36 51°21.674 2°52.92 13.2 339 11.1 102130 42
2010-10-21 14:37 51°21.481 2°52.838 14.7 339 11.1 102130 41
2010-10-21 14:38 51°21.289 2°52.754 14.2 338 11 102130 41
2010-10-21 14:39 51°21.097 2°52.67 14.5 336 10.9 102140 42
2010-10-21 14:40 51°20.904 2°52.582 14.1 337 10.9 102140 43
2010-10-21 14:41 51°20.709 2°52.519 14.8 338 10.9 102130 42
2010-10-21 14:42 51°20.511 2°52.47 12.2 341 10.8 102110 41
2010-10-21 14:43 51°20.31 2°52.446 13.1 343 10.9 102130 43
2010-10-21 14:44 51°20.109 2°52.436 14.1 338 10.9 102120 42
2010-10-21 14:45 51°19.91 2°52.435 15.4 343 10.9 102120 42
2010-10-21 14:46 51°19.71 2°52.432 13 345 10.9 102120 43
2010-10-21 14:47 51°19.51 2°52.431 14.1 345 10.9 102120 42
2010-10-21 14:48 51°19.312 2°52.434 12.8 342 10.9 102120 41
2010-10-21 14:49 51°19.113 2°52.416 13.7 342 10.9 102120 42
2010-10-21 14:50 51°18.913 2°52.391 13 343 10.8 102120 41
2010-10-21 14:51 51°18.714 2°52.364 15.3 341 10.9 102120 42
2010-10-21 14:52 51°18.513 2°52.36 15.3 345 10.9 102130 43
2010-10-21 14:53 51°18.312 2°52.356 15.1 344 10.8 102120 42
2010-10-21 14:54 51°18.111 2°52.359 13.2 346 10.9 102120 42
2010-10-21 14:55 51°17.913 2°52.36 14.5 346 10.9 102120 42
2010-10-21 14:56 51°17.714 2°52.349 13.9 342 10.9 102110 43
2010-10-21 14:57 51°17.517 2°52.299 14.2 341 11 102130 43
2010-10-21 14:58 51°17.338 2°52.241 15.5 343 10.9 102120 43
2010-10-21 14:59 51°17.164 2°52.216 13.6 350 10.9 102120 42
2010-10-21 15:00 51°16.995 2°52.257 12.6 345 11 102140 44
2010-10-21 15:01 51°16.847 2°52.326 12.4 349 10.9 102130 44
2010-10-21 15:02 51°16.716 2°52.392 12.2 351 10.8 102140 43
2010-10-21 15:03 51°16.599 2°52.447 11.4 353 10.7 102130 43
2010-10-21 15:04 51°16.489 2°52.506 11.9 356 10.7 102120 43
2010-10-21 15:05 51°16.389 2°52.615 10.5 360 10.7 102140 43
2010-10-21 15:06 51°16.302 2°52.753 9.7 2 10.6 102130 42
2010-10-21 15:07 51°16.214 2°52.889 10.4 5 10.7 102140 44
2010-10-21 15:08 51°16.132 2°53.015 10.1 7 10.6 102140 43
2010-10-21 15:09 51°16.054 2°53.14 10.6 4 10.6 102130 43
2010-10-21 15:10 51°15.975 2°53.261 13 2 10.5 102130 44
2010-10-21 15:11 51°15.893 2°53.372 13.2 -999 10.5 102140 42
2010-10-21 15:12 51°15.807 2°53.486 12.6 4 10.4 102150 43
2010-10-21 15:13 51°15.714 2°53.606 9.1 6 10.5 102140 43
2010-10-21 15:14 51°15.612 2°53.736 9.9 4 10.5 102140 43
2010-10-21 15:15 51°15.51 2°53.858 11.6 1 10.5 102130 43
2010-10-21 15:16 51°15.411 2°53.979 9.3 360 10.4 102140 43
2010-10-21 15:17 51°15.304 2°54.096 11.3 2 10.4 102130 44
2010-10-21 15:18 51°15.196 2°54.215 11.5 4 10.4 102140 44
2010-10-21 15:19 51°15.089 2°54.333 11.8 -999 10.3 102150 44
2010-10-21 15:20 51°14.98 2°54.456 13.4 359 10.3 102130 42
2010-10-21 15:21 51°14.871 2°54.582 10.8 5 10.2 102140 43
2010-10-21 15:22 51°14.768 2°54.711 11 2 10.1 102140 41
2010-10-21 15:23 51°14.663 2°54.836 11.1 2 10.1 102140 43
2010-10-21 15:24 51°14.55 2°54.964 10.8 2 10 102140 44
2010-10-21 15:25 51°14.434 2°55.098 10.1 1 10 102140 41
2010-10-21 15:26 51°14.319 2°55.223 9.5 9 9.9 102160 41
2010-10-21 15:27 51°14.207 2°55.332 6.5 350 9.8 102180 41
2010-10-21 15:28 51°14.093 2°55.422 6.4 345 9.8 102190 41
2010-10-21 15:29 51°13.987 2°55.504 9.4 352 9.9 102190 41
2010-10-21 15:30 51°13.891 2°55.579 8.2 344 9.9 102180 40
2010-10-21 15:31 51°13.799 2°55.657 3.7 348 9.8 102190 41
2010-10-21 15:32 51°13.726 2°55.77 7 2 9.8 102180 40
2010-10-21 15:33 51°13.674 2°55.885 0.5 343 9.8 102190 42
2010-10-21 15:34 51°13.662 2°55.958 2.2 357 9.8 102190 41